Time;durP1;ratioP1;P1;durP2;ratioP2;P2;SDS_P1;SDS_P2;PMS_P1;PMS_P2;Temp;Humidity;BMP_temperature;BMP_pressure;BME280_temperature;BME280_humidity;BME280_pressure;Samples;Min_cycle;Max_cycle;Signal;HPM_P1;HPM_P2
2022/12/03 00:01:45;;;;;;;29.88;16.83;;;2.70;99.90;;;;;;5030752;28;20115;-84
2022/12/03 00:04:11;;;;;;;33.67;17.45;;;2.70;99.90;;;;;;5022511;28;20042;-84
2022/12/03 00:06:36;;;;;;;34.50;17.63;;;2.70;99.90;;;;;;5028946;28;20045;-84
2022/12/03 00:09:03;;;;;;;32.53;17.05;;;2.70;99.90;;;;;;5006373;28;20041;-84
2022/12/03 00:11:29;;;;;;;37.72;17.55;;;2.70;99.90;;;;;;5024020;28;20117;-84
2022/12/03 00:13:54;;;;;;;33.15;16.95;;;2.60;99.90;;;;;;5008330;28;20505;-84
2022/12/03 00:16:20;;;;;;;33.63;17.65;;;2.70;99.90;;;;;;5032056;28;20037;-84
2022/12/03 00:18:45;;;;;;;32.67;17.95;;;2.60;99.90;;;;;;5019824;28;20411;-84
2022/12/03 00:21:11;;;;;;;33.08;17.25;;;2.60;99.90;;;;;;5024191;28;20117;-84
2022/12/03 00:23:37;;;;;;;32.35;16.27;;;2.50;99.90;;;;;;5040655;28;20323;-84
2022/12/03 00:26:02;;;;;;;34.17;17.75;;;2.50;99.90;;;;;;5028656;28;20038;-84
2022/12/03 00:28:28;;;;;;;39.45;17.33;;;2.50;99.90;;;;;;5025983;28;20425;-84
2022/12/03 00:30:54;;;;;;;36.38;18.17;;;2.50;99.90;;;;;;5026820;28;20115;-84
2022/12/03 00:33:20;;;;;;;34.60;17.98;;;2.50;99.90;;;;;;5029815;28;20038;-84
2022/12/03 00:35:46;;;;;;;34.50;17.25;;;2.50;99.90;;;;;;5010506;28;20044;-84
2022/12/03 00:38:11;;;;;;;35.00;16.70;;;2.50;99.90;;;;;;5031629;28;20037;-84
2022/12/03 00:40:37;;;;;;;35.60;18.25;;;2.50;99.90;;;;;;5023414;28;20112;-84
2022/12/03 00:43:06;;;;;;;36.15;18.88;;;2.50;99.90;;;;;;5010467;28;20104;-84
2022/12/03 00:45:31;;;;;;;39.28;18.30;;;2.60;99.90;;;;;;5013739;28;20133;-84
2022/12/03 00:47:57;;;;;;;35.67;18.48;;;2.60;99.90;;;;;;5027795;28;20116;-84
2022/12/03 00:50:22;;;;;;;33.88;18.08;;;2.60;99.90;;;;;;5012968;28;20113;-84
2022/12/03 00:52:48;;;;;;;34.03;18.67;;;2.60;99.90;;;;;;5009374;28;20491;-84
2022/12/03 00:55:14;;;;;;;36.35;17.10;;;2.60;99.90;;;;;;5032351;28;20063;-84
2022/12/03 00:57:41;;;;;;;36.88;18.65;;;2.70;99.90;;;;;;5012713;28;20121;-84
2022/12/03 01:00:08;;;;;;;39.15;19.00;;;2.70;99.90;;;;;;5007206;28;20034;-84
2022/12/03 01:02:34;;;;;;;35.58;17.85;;;2.80;99.90;;;;;;5029808;28;20037;-84
2022/12/03 01:04:59;;;;;;;34.60;17.48;;;2.80;99.90;;;;;;5011345;28;20040;-84
2022/12/03 01:07:25;;;;;;;36.47;18.38;;;2.80;99.90;;;;;;5025952;28;20045;-84
2022/12/03 01:09:51;;;;;;;34.42;18.13;;;2.80;99.90;;;;;;5025771;28;20033;-85
2022/12/03 01:12:16;;;;;;;35.50;17.70;;;2.90;99.90;;;;;;5009972;28;20044;-84
2022/12/03 01:14:42;;;;;;;37.92;17.55;;;2.80;99.90;;;;;;5027074;28;20443;-84
2022/12/03 01:17:07;;;;;;;34.97;18.73;;;2.80;99.90;;;;;;5009551;28;20502;-84
2022/12/03 01:19:34;;;;;;;35.92;17.73;;;2.90;99.90;;;;;;5032790;28;20128;-84
2022/12/03 01:22:00;;;;;;;34.42;17.20;;;2.90;99.90;;;;;;5020271;28;20037;-84
2022/12/03 01:24:26;;;;;;;36.85;17.65;;;2.90;99.90;;;;;;5010543;28;20045;-84
2022/12/03 01:26:52;;;;;;;32.33;18.00;;;2.90;99.90;;;;;;5034233;28;20443;-84
2022/12/03 01:29:18;;;;;;;36.55;18.42;;;2.90;99.90;;;;;;5026982;28;20048;-84
2022/12/03 01:34:28;;;;;;;37.30;18.65;;;2.90;99.90;;;;;;5023310;28;20033;-84
2022/12/03 01:36:53;;;;;;;36.45;18.48;;;2.90;99.90;;;;;;5009767;28;20034;-84
2022/12/03 01:39:19;;;;;;;38.42;20.08;;;3.00;99.90;;;;;;5015773;28;20041;-84
2022/12/03 01:41:46;;;;;;;37.63;18.83;;;3.00;99.90;;;;;;5015715;28;20738;-84
2022/12/03 01:44:28;;;;;;;36.40;18.48;;;3.00;99.90;;;;;;5004616;28;20037;-84
2022/12/03 01:46:55;;;;;;;37.78;19.20;;;3.00;99.90;;;;;;5018429;28;20096;-84
2022/12/03 01:49:28;;;;;;;37.83;18.35;;;3.00;99.90;;;;;;5006586;28;20030;-84
2022/12/03 01:51:55;;;;;;;38.03;20.50;;;3.00;99.90;;;;;;5018169;28;20084;-84
2022/12/03 01:54:39;;;;;;;33.10;17.88;;;3.00;99.90;;;;;;5003566;28;20040;-84
2022/12/03 01:57:12;;;;;;;;;;;3.00;99.90;;;;;;5002951;28;20034;-84
2022/12/03 01:59:38;;;;;;;35.72;18.70;;;3.00;99.90;;;;;;5008500;28;20400;-84
2022/12/03 02:02:12;;;;;;;37.55;19.02;;;3.10;99.90;;;;;;5006287;28;20084;-84
2022/12/03 02:04:38;;;;;;;30.50;16.98;;;3.10;99.90;;;;;;5023844;28;20528;-84
2022/12/03 02:07:18;;;;;;;33.83;17.98;;;3.10;99.90;;;;;;5026811;28;20128;-85
2022/12/03 02:09:44;;;;;;;34.72;18.13;;;3.10;99.90;;;;;;5022504;28;20248;-84
2022/12/03 02:12:10;;;;;;;31.75;18.23;;;3.10;99.90;;;;;;5011924;28;20068;-84
2022/12/03 02:14:35;;;;;;;34.90;18.70;;;3.10;99.90;;;;;;5016668;28;20061;-84
2022/12/03 02:17:01;;;;;;;33.00;19.00;;;3.10;99.90;;;;;;5007769;28;20515;-84
2022/12/03 02:19:30;;;;;;;33.28;19.38;;;3.10;99.90;;;;;;5029413;28;20056;-85
2022/12/03 02:22:11;;;;;;;28.42;16.98;;;3.20;99.90;;;;;;5011555;28;20132;-84
2022/12/03 02:25:19;;;;;;;31.90;17.70;;;3.10;99.90;;;;;;5011566;28;20069;-85
2022/12/03 02:27:46;;;;;;;31.35;17.52;;;3.10;99.90;;;;;;5008148;28;20049;-84
2022/12/03 02:30:15;;;;;;;27.85;16.70;;;3.10;99.90;;;;;;5033242;28;20040;-85
2022/12/03 02:32:40;;;;;;;31.42;17.88;;;3.10;99.90;;;;;;5034355;28;20041;-84
2022/12/03 02:35:12;;;;;;;29.00;17.42;;;3.10;99.90;;;;;;5012990;28;20040;-84
2022/12/03 02:37:38;;;;;;;28.20;17.63;;;3.10;99.90;;;;;;5026878;28;20037;-84
2022/12/03 02:40:11;;;;;;;30.75;17.85;;;3.00;99.90;;;;;;5030441;28;20065;-84
2022/12/03 02:42:37;;;;;;;29.40;17.60;;;3.10;99.90;;;;;;5026380;28;20482;-85
2022/12/03 02:45:17;;;;;;;29.08;17.63;;;3.00;99.90;;;;;;5026710;28;20042;-84
2022/12/03 02:47:53;;;;;;;29.08;16.05;;;3.00;99.90;;;;;;5022071;28;20038;-84
2022/12/03 02:50:25;;;;;;;31.33;18.83;;;3.00;99.90;;;;;;5011339;28;20029;-84
2022/12/03 02:52:52;;;;;;;27.45;16.42;;;3.00;99.90;;;;;;5024641;28;20187;-84
2022/12/03 02:55:18;;;;;;;29.10;16.58;;;3.00;99.90;;;;;;5024024;28;20033;-84
2022/12/03 02:57:47;;;;;;;30.30;17.52;;;3.00;99.90;;;;;;5006017;28;20107;-84
2022/12/03 03:00:14;;;;;;;25.33;15.57;;;3.00;99.90;;;;;;5040204;28;20026;-84
2022/12/03 03:02:40;;;;;;;28.55;16.92;;;3.00;99.90;;;;;;5047259;28;20437;-84
2022/12/03 03:05:08;;;;;;;29.90;18.10;;;3.00;99.90;;;;;;5001490;28;20037;-84
2022/12/03 03:07:34;;;;;;;29.90;17.10;;;3.00;99.90;;;;;;5015397;28;20049;-85
2022/12/03 03:10:01;;;;;;;26.40;15.88;;;3.00;99.90;;;;;;5025768;28;20059;-84
2022/12/03 03:12:27;;;;;;;32.85;18.27;;;3.00;99.90;;;;;;5024101;28;20405;-85
2022/12/03 03:14:53;;;;;;;31.35;17.85;;;3.00;99.90;;;;;;5011649;28;20041;-84
2022/12/03 03:17:18;;;;;;;29.02;17.77;;;3.00;99.90;;;;;;5013890;28;20032;-84
2022/12/03 03:19:44;;;;;;;31.02;17.35;;;3.00;99.90;;;;;;5029133;28;20049;-84
2022/12/03 03:22:10;;;;;;;29.38;17.10;;;3.00;99.90;;;;;;5020462;28;20040;-84
2022/12/03 03:24:36;;;;;;;32.63;17.85;;;3.00;99.90;;;;;;5029595;28;20041;-84
2022/12/03 03:27:02;;;;;;;29.23;17.65;;;3.00;99.90;;;;;;5015912;28;20408;-84
2022/12/03 03:29:30;;;;;;;31.50;17.92;;;3.00;99.90;;;;;;5029366;28;20025;-84
2022/12/03 03:31:56;;;;;;;33.97;18.70;;;3.00;99.90;;;;;;5018337;28;20061;-84
2022/12/03 03:34:22;;;;;;;31.10;18.23;;;2.90;99.90;;;;;;5032330;28;20034;-84
2022/12/03 03:36:48;;;;;;;33.50;18.98;;;3.00;99.90;;;;;;5027802;28;20025;-84
2022/12/03 03:39:14;;;;;;;33.35;18.88;;;2.90;99.90;;;;;;5026842;28;20103;-84
2022/12/03 03:41:41;;;;;;;32.88;18.65;;;3.00;99.90;;;;;;5012643;28;20124;-84
2022/12/03 03:44:08;;;;;;;34.10;18.70;;;3.00;99.90;;;;;;5004278;28;20147;-85
2022/12/03 03:46:35;;;;;;;32.90;19.15;;;2.90;99.90;;;;;;5001259;28;20049;-84
2022/12/03 03:49:03;;;;;;;34.45;20.10;;;2.90;99.90;;;;;;5019228;28;20441;-85
2022/12/03 03:51:29;;;;;;;34.45;19.00;;;3.00;99.90;;;;;;5015602;28;20038;-84
2022/12/03 03:53:55;;;;;;;33.15;19.00;;;2.90;99.90;;;;;;5018576;28;20036;-84
2022/12/03 03:56:21;;;;;;;35.55;19.55;;;2.90;99.90;;;;;;5005968;28;20105;-84
2022/12/03 03:58:47;;;;;;;29.88;17.75;;;2.90;99.90;;;;;;5030139;28;20067;-84
2022/12/03 04:01:13;;;;;;;31.83;18.10;;;2.90;99.90;;;;;;5013983;28;20487;-84
2022/12/03 04:03:40;;;;;;;32.85;18.80;;;2.90;99.90;;;;;;5010117;28;20505;-84
2022/12/03 04:06:06;;;;;;;35.00;19.23;;;2.90;99.90;;;;;;5007593;28;20411;-85
2022/12/03 04:08:31;;;;;;;33.22;19.23;;;2.90;99.90;;;;;;5030059;28;20056;-84
2022/12/03 04:13:41;;;;;;;;;;;2.90;99.90;;;;;;5026463;28;20037;-84
2022/12/03 04:16:07;;;;;;;30.92;18.05;;;2.90;99.90;;;;;;5006995;28;19917;-84
2022/12/03 04:18:44;;;;;;;30.08;17.88;;;2.90;99.90;;;;;;5023553;28;20041;-84
2022/12/03 04:23:58;;;;;;;31.85;19.10;;;2.90;99.90;;;;;;5027458;28;20042;-84
2022/12/03 04:29:08;;;;;;;;;;;2.80;99.90;;;;;;5028064;28;20052;-84
2022/12/03 04:37:04;;;;;;;31.23;18.00;;;2.80;99.90;;;;;;5028196;28;20037;-84
2022/12/03 04:39:29;;;;;;;29.45;17.40;;;2.80;99.90;;;;;;5006994;28;20052;-84
2022/12/03 04:41:55;;;;;;;31.30;18.45;;;2.80;99.90;;;;;;5014977;28;20120;-84
2022/12/03 04:44:34;;;;;;;31.40;18.10;;;2.80;99.90;;;;;;5017971;28;20401;-84
2022/12/03 04:47:10;;;;;;;34.53;18.17;;;2.80;99.90;;;;;;5013656;28;20037;-84
2022/12/03 04:49:44;;;;;;;30.33;18.50;;;2.80;99.90;;;;;;5025305;28;20029;-84
2022/12/03 04:52:12;;;;;;;32.70;17.73;;;2.80;99.90;;;;;;5027916;28;20220;-84
2022/12/03 04:54:38;;;;;;;32.17;18.85;;;2.70;99.90;;;;;;5026846;28;20579;-84
2022/12/03 04:57:05;;;;;;;35.72;19.38;;;2.70;99.90;;;;;;5010749;28;20036;-84
2022/12/03 04:59:31;;;;;;;28.92;18.02;;;2.70;99.90;;;;;;5013777;28;20045;-84
2022/12/03 05:01:57;;;;;;;32.47;18.83;;;2.70;99.90;;;;;;5021511;28;20034;-84
2022/12/03 05:04:23;;;;;;;34.63;18.75;;;2.70;99.90;;;;;;5017002;28;20034;-84
2022/12/03 05:06:49;;;;;;;34.53;19.65;;;2.70;99.90;;;;;;5014321;28;20417;-84
2022/12/03 05:09:15;;;;;;;30.75;18.23;;;2.70;99.90;;;;;;5002101;28;20076;-84
2022/12/03 05:11:41;;;;;;;31.63;18.38;;;2.70;99.90;;;;;;5019466;28;20073;-84
2022/12/03 05:14:07;;;;;;;32.15;19.30;;;2.70;99.90;;;;;;5022571;28;20355;-84
2022/12/03 05:16:33;;;;;;;30.50;17.45;;;2.70;99.90;;;;;;4997832;28;20034;-84
2022/12/03 05:18:59;;;;;;;34.33;18.58;;;2.70;99.90;;;;;;5018858;28;20424;-84
2022/12/03 05:21:24;;;;;;;34.10;18.42;;;2.70;99.90;;;;;;5003772;28;20486;-84
2022/12/03 05:23:50;;;;;;;31.77;19.10;;;2.70;99.90;;;;;;5021266;28;20029;-84
2022/12/03 05:26:15;;;;;;;32.25;19.15;;;2.70;99.90;;;;;;4995793;28;20120;-84
2022/12/03 05:28:41;;;;;;;31.58;18.20;;;2.70;99.90;;;;;;5027461;28;20045;-84
2022/12/03 05:31:07;;;;;;;35.13;19.20;;;2.70;99.90;;;;;;5016380;28;20491;-84
2022/12/03 05:33:33;;;;;;;33.17;19.80;;;2.70;99.90;;;;;;5022927;28;20087;-84
2022/12/03 05:35:58;;;;;;;32.63;20.23;;;2.70;99.90;;;;;;5021370;28;20095;-84
2022/12/03 05:38:24;;;;;;;32.30;18.27;;;2.70;99.90;;;;;;5026802;28;20021;-84
2022/12/03 05:40:50;;;;;;;35.17;19.73;;;2.70;99.90;;;;;;5027906;28;20088;-84
2022/12/03 05:43:16;;;;;;;33.83;19.02;;;2.70;99.90;;;;;;5007441;28;20509;-84
2022/12/03 05:45:43;;;;;;;37.78;20.33;;;2.70;99.90;;;;;;5031894;28;20112;-84
2022/12/03 05:48:11;;;;;;;33.05;19.08;;;2.70;99.90;;;;;;5028198;28;20033;-84
2022/12/03 05:50:39;;;;;;;33.35;19.45;;;2.70;99.90;;;;;;5023680;28;20042;-84
2022/12/03 05:53:05;;;;;;;34.97;19.15;;;2.70;99.90;;;;;;5007313;28;20034;-84
2022/12/03 05:55:30;;;;;;;35.30;18.75;;;2.70;99.90;;;;;;5025111;28;20045;-84
2022/12/03 05:57:56;;;;;;;31.85;18.38;;;2.60;99.90;;;;;;5011091;28;20477;-84
2022/12/03 06:00:28;;;;;;;31.83;19.33;;;2.60;99.90;;;;;;5003948;28;20088;-85
2022/12/03 06:02:54;;;;;;;33.58;18.35;;;2.70;99.90;;;;;;5024527;28;20041;-84
2022/12/03 06:05:20;;;;;;;31.30;19.17;;;2.60;99.90;;;;;;5008736;28;20064;-84
2022/12/03 06:07:47;;;;;;;32.50;17.95;;;2.60;99.90;;;;;;5014902;28;20088;-84
2022/12/03 06:10:16;;;;;;;35.65;20.48;;;2.60;99.90;;;;;;5001711;28;20040;-85
2022/12/03 06:12:41;;;;;;;33.35;20.13;;;2.60;99.90;;;;;;5019509;28;20045;-84
2022/12/03 06:15:11;;;;;;;35.22;21.10;;;2.60;99.90;;;;;;5003411;28;20060;-84
2022/12/03 06:17:37;;;;;;;37.42;21.15;;;2.60;99.90;;;;;;5001074;28;20034;-84
2022/12/03 06:20:03;;;;;;;39.17;22.77;;;2.60;99.90;;;;;;5020599;28;20030;-84
2022/12/03 06:22:29;;;;;;;38.60;22.17;;;2.60;99.90;;;;;;5006873;28;20124;-85
2022/12/03 06:24:55;;;;;;;40.28;22.23;;;2.60;99.90;;;;;;5023579;28;20065;-84
2022/12/03 06:27:20;;;;;;;40.90;22.73;;;2.50;99.90;;;;;;5001450;28;20049;-84
2022/12/03 06:29:46;;;;;;;42.15;22.52;;;2.50;99.90;;;;;;5007510;28;20030;-84
2022/12/03 06:32:11;;;;;;;40.53;22.95;;;2.50;99.90;;;;;;5023819;28;20049;-84
2022/12/03 06:34:37;;;;;;;38.55;21.95;;;2.50;99.90;;;;;;5007157;28;20044;-84
2022/12/03 06:37:03;;;;;;;48.42;24.88;;;2.50;99.90;;;;;;5024255;28;20129;-84
2022/12/03 06:39:29;;;;;;;42.33;22.95;;;2.50;99.90;;;;;;5001699;28;20037;-84
2022/12/03 06:41:54;;;;;;;44.38;24.27;;;2.50;99.90;;;;;;5007442;28;20823;-84
2022/12/03 06:44:20;;;;;;;44.13;24.52;;;2.60;99.90;;;;;;5009656;28;20033;-84
2022/12/03 06:46:46;;;;;;;41.90;24.27;;;2.40;99.90;;;;;;5028169;28;20049;-84
2022/12/03 06:49:11;;;;;;;40.17;22.67;;;2.40;99.90;;;;;;5017682;28;20056;-84
2022/12/03 06:51:37;;;;;;;43.67;24.05;;;2.40;99.90;;;;;;5020949;28;20041;-84
2022/12/03 06:54:04;;;;;;;41.28;23.80;;;2.40;99.90;;;;;;5007985;28;20044;-84
2022/12/03 06:56:30;;;;;;;44.70;23.55;;;2.40;99.90;;;;;;5010973;28;20037;-84
2022/12/03 06:58:56;;;;;;;41.47;24.60;;;2.30;99.90;;;;;;5010072;28;20044;-84
2022/12/03 07:01:22;;;;;;;43.28;24.42;;;2.30;99.90;;;;;;5008485;28;20487;-84
2022/12/03 07:03:48;;;;;;;42.72;23.52;;;2.30;99.90;;;;;;5023975;28;20033;-84
2022/12/03 07:06:13;;;;;;;42.35;22.75;;;2.30;99.90;;;;;;5023579;28;20049;-84
2022/12/03 07:08:39;;;;;;;40.97;23.05;;;2.30;99.90;;;;;;4997743;28;20049;-84
2022/12/03 07:11:29;;;;;;;41.22;23.05;;;2.30;99.90;;;;;;5001631;28;20092;-84
2022/12/03 07:13:51;;;;;;;42.30;22.60;;;2.30;99.90;;;;;;5012032;28;20050;-84
2022/12/03 07:16:23;;;;;;;43.25;22.17;;;2.30;99.90;;;;;;5005771;28;20037;-84
2022/12/03 07:18:49;;;;;;;41.13;21.92;;;2.30;99.90;;;;;;5016617;28;20398;-84
2022/12/03 07:21:14;;;;;;;41.00;21.92;;;2.20;99.90;;;;;;5001312;28;20048;-84
2022/12/03 07:23:40;;;;;;;39.53;22.27;;;2.20;99.90;;;;;;5003451;28;20513;-84
2022/12/03 07:26:06;;;;;;;46.15;23.48;;;2.20;99.90;;;;;;5015311;28;20452;-84
2022/12/03 07:28:32;;;;;;;41.92;22.65;;;2.10;99.90;;;;;;5016298;28;20521;-84
2022/12/03 07:30:58;;;;;;;43.40;22.80;;;2.10;99.90;;;;;;5009109;28;20041;-84
2022/12/03 07:33:23;;;;;;;43.00;23.08;;;2.10;99.90;;;;;;5023047;28;20047;-84
2022/12/03 07:35:49;;;;;;;41.92;22.88;;;2.10;99.90;;;;;;5005414;28;20042;-84
2022/12/03 07:38:15;;;;;;;39.35;21.92;;;2.10;99.90;;;;;;5007196;28;20099;-84
2022/12/03 07:40:40;;;;;;;43.78;22.80;;;2.10;99.90;;;;;;5023545;28;20040;-84
2022/12/03 07:43:09;;;;;;;45.03;22.95;;;2.10;99.90;;;;;;5006387;28;20076;-84
2022/12/03 07:45:35;;;;;;;41.90;22.20;;;2.10;99.90;;;;;;5003661;28;20048;-84
2022/12/03 07:48:06;;;;;;;43.70;22.85;;;2.10;99.90;;;;;;5007507;28;20029;-84
2022/12/03 07:50:31;;;;;;;39.67;22.58;;;2.10;99.90;;;;;;5002942;28;20149;-84
2022/12/03 07:52:57;;;;;;;46.45;23.23;;;2.10;99.90;;;;;;5025550;28;20068;-84
2022/12/03 07:55:24;;;;;;;43.30;23.13;;;2.10;99.90;;;;;;5005649;28;20044;-84
2022/12/03 07:57:50;;;;;;;44.60;23.92;;;2.10;99.90;;;;;;5009100;28;20099;-84
2022/12/03 08:00:16;;;;;;;41.38;22.48;;;2.00;99.90;;;;;;5004375;28;20034;-84
2022/12/03 08:02:42;;;;;;;40.67;22.70;;;2.00;99.90;;;;;;5011831;28;20540;-82
2022/12/03 08:05:10;;;;;;;44.08;22.08;;;2.00;99.90;;;;;;5018521;28;20042;-83
2022/12/03 08:07:36;;;;;;;45.47;23.08;;;2.00;99.90;;;;;;5028788;28;20485;-84
2022/12/03 08:10:05;;;;;;;45.85;23.08;;;2.00;99.90;;;;;;5022624;28;20048;-84
2022/12/03 08:12:49;;;;;;;44.97;22.80;;;2.00;99.90;;;;;;5035113;28;20049;-84
2022/12/03 08:15:23;;;;;;;46.80;22.88;;;2.00;99.90;;;;;;5013185;28;20502;-84
2022/12/03 08:17:54;;;;;;;40.00;22.27;;;2.00;99.90;;;;;;5034767;28;20127;-84
2022/12/03 08:25:07;;;;;;;43.58;22.70;;;1.90;99.90;;;;;;4970409;28;20049;-85
2022/12/03 08:27:29;;;;;;;43.72;21.08;;;1.90;99.90;;;;;;5000219;28;20037;-84
2022/12/03 08:30:05;;;;;;;41.22;21.83;;;1.90;99.90;;;;;;5007540;28;20034;-87
2022/12/03 08:32:33;;;;;;;42.00;21.45;;;1.90;99.90;;;;;;5032028;28;20056;-84
2022/12/03 08:36:11;;;;;;;;;;;;;;;;;;;;;
2022/12/03 08:39:47;;;;;;;42.95;21.23;;;1.80;99.90;;;;;;5009205;28;20056;-86
2022/12/03 08:42:59;;;;;;;34.90;19.27;;;1.90;99.90;;;;;;5020314;28;20094;-85
2022/12/03 08:45:29;;;;;;;38.97;21.17;;;1.80;99.90;;;;;;5027570;28;20633;-85
2022/12/03 08:47:59;;;;;;;41.08;20.77;;;1.80;99.90;;;;;;5023795;28;20050;-85
2022/12/03 08:50:57;;;;;;;41.25;20.85;;;1.90;99.90;;;;;;5023512;28;20033;-85
2022/12/03 08:53:37;;;;;;;37.38;20.02;;;1.90;99.90;;;;;;5002315;28;20056;-85
2022/12/03 08:56:25;;;;;;;39.45;21.17;;;1.90;99.90;;;;;;5027314;28;20485;-85
2022/12/03 08:58:54;;;;;;;39.70;21.10;;;1.90;99.90;;;;;;5009752;28;20037;-84
2022/12/03 09:01:27;;;;;;;39.75;21.15;;;1.90;99.90;;;;;;5007505;28;20116;-83
2022/12/03 09:03:54;;;;;;;41.65;21.45;;;1.90;99.90;;;;;;5022841;28;20072;-83
2022/12/03 09:06:21;;;;;;;39.10;21.45;;;1.90;99.90;;;;;;5009408;28;20045;-83
2022/12/03 09:08:47;;;;;;;37.97;21.08;;;2.00;99.90;;;;;;5015424;28;20068;-83
2022/12/03 09:11:13;;;;;;;39.35;21.67;;;2.00;99.90;;;;;;5032714;28;20079;-84
2022/12/03 09:13:39;;;;;;;41.83;22.13;;;2.00;99.90;;;;;;5009731;28;20100;-88
2022/12/03 09:16:05;;;;;;;40.13;20.67;;;2.10;99.90;;;;;;5024028;28;20025;-86
2022/12/03 09:18:32;;;;;;;42.13;22.52;;;2.00;99.90;;;;;;5037183;28;20052;-84
2022/12/03 09:20:57;;;;;;;44.03;22.65;;;2.10;99.90;;;;;;5012209;28;20044;-85
2022/12/03 09:23:23;;;;;;;41.20;22.27;;;2.10;99.90;;;;;;5026227;28;20037;-86
2022/12/03 09:25:49;;;;;;;41.80;22.80;;;2.10;99.90;;;;;;5014160;28;20065;-85
2022/12/03 09:28:14;;;;;;;40.05;22.15;;;2.10;99.90;;;;;;5031246;28;20037;-85
2022/12/03 09:30:40;;;;;;;39.28;21.35;;;2.20;99.90;;;;;;5032462;28;20036;-85
2022/12/03 09:33:06;;;;;;;43.83;21.50;;;2.20;99.90;;;;;;5016886;28;20076;-85
2022/12/03 09:35:31;;;;;;;43.00;22.38;;;2.10;99.90;;;;;;5014838;28;20124;-86
2022/12/03 09:37:57;;;;;;;39.97;22.08;;;2.10;99.90;;;;;;5017726;28;20041;-81
2022/12/03 09:40:23;;;;;;;42.33;21.60;;;2.20;99.90;;;;;;5032926;28;20378;-85
2022/12/03 09:42:49;;;;;;;39.95;22.52;;;2.20;99.90;;;;;;5040163;28;20037;-81
2022/12/03 09:45:16;;;;;;;40.97;21.75;;;2.20;99.90;;;;;;5023972;28;20057;-81
2022/12/03 09:47:45;;;;;;;37.55;22.63;;;2.20;99.90;;;;;;5024561;28;20057;-82
2022/12/03 09:50:18;;;;;;;43.72;23.95;;;2.30;99.90;;;;;;5031543;28;20052;-84
2022/12/03 09:52:45;;;;;;;45.90;23.88;;;2.40;99.90;;;;;;5027197;28;20037;-81
2022/12/03 09:55:16;;;;;;;41.85;22.98;;;2.50;99.90;;;;;;5039062;28;20042;-82
2022/12/03 09:57:42;;;;;;;42.25;23.40;;;2.50;99.90;;;;;;5037173;28;20029;-81
2022/12/03 10:00:15;;;;;;;44.05;23.65;;;2.60;99.90;;;;;;5017395;28;20068;-81
2022/12/03 10:02:41;;;;;;;;;;;2.60;99.90;;;;;;5026594;28;20082;-82
2022/12/03 10:05:07;;;;;;;44.35;23.42;;;2.60;99.90;;;;;;5034409;28;19997;-82
2022/12/03 10:07:33;;;;;;;44.40;23.70;;;2.70;99.90;;;;;;5041197;28;20065;-81
2022/12/03 10:09:59;;;;;;;43.83;22.88;;;2.80;99.90;;;;;;5015880;28;20041;-81
2022/12/03 10:12:25;;;;;;;42.22;23.02;;;2.80;99.90;;;;;;5030697;28;20044;-81
2022/12/03 10:14:51;;;;;;;39.72;23.30;;;2.90;99.90;;;;;;5031540;28;20052;-81
2022/12/03 10:17:17;;;;;;;44.17;23.98;;;3.00;99.90;;;;;;5036797;28;20109;-82
2022/12/03 10:19:43;;;;;;;40.40;22.83;;;3.00;99.90;;;;;;5025067;28;20553;-82
2022/12/03 10:22:09;;;;;;;48.42;25.33;;;3.00;99.90;;;;;;5017179;28;20077;-82
2022/12/03 10:24:36;;;;;;;39.22;21.92;;;3.00;99.90;;;;;;5021490;28;20036;-81
2022/12/03 10:27:04;;;;;;;40.83;22.48;;;3.00;99.90;;;;;;5038745;28;20044;-82
2022/12/03 10:29:33;;;;;;;41.78;21.35;;;2.80;99.90;;;;;;5033500;28;20030;-82
2022/12/03 10:32:08;;;;;;;42.88;23.67;;;2.80;99.90;;;;;;5024897;28;20029;-81
2022/12/03 10:34:36;;;;;;;44.50;22.38;;;2.80;99.90;;;;;;5013578;28;20049;-82
2022/12/03 10:37:14;;;;;;;43.90;23.58;;;2.80;99.90;;;;;;5013320;28;20048;-82
2022/12/03 10:39:59;;;;;;;40.83;23.00;;;2.80;99.90;;;;;;5033233;28;20049;-81
2022/12/03 10:42:31;;;;;;;42.80;23.83;;;2.80;99.90;;;;;;5036809;28;20048;-81
2022/12/03 10:45:21;;;;;;;39.80;21.85;;;2.80;99.90;;;;;;5036604;28;20038;-82
2022/12/03 10:48:10;;;;;;;40.72;21.73;;;2.80;99.90;;;;;;5025130;28;20053;-82
2022/12/03 10:50:36;;;;;;;43.65;23.45;;;2.80;99.90;;;;;;5033800;28;20065;-81
2022/12/03 10:53:03;;;;;;;43.88;23.25;;;2.80;99.90;;;;;;5026910;28;20502;-82
2022/12/03 10:55:36;;;;;;;42.38;24.38;;;2.80;99.90;;;;;;5042848;28;20033;-80
2022/12/03 10:58:01;;;;;;;39.97;22.17;;;2.90;99.90;;;;;;5036624;28;20719;-81
2022/12/03 11:00:27;;;;;;;42.10;22.42;;;2.80;99.90;;;;;;5037004;28;20068;-83
2022/12/03 11:02:53;;;;;;;44.60;23.55;;;2.80;99.90;;;;;;5035909;28;20041;-82
2022/12/03 11:05:22;;;;;;;42.00;24.00;;;2.80;99.90;;;;;;5021092;28;20034;-81
2022/12/03 11:07:48;;;;;;;43.50;23.75;;;2.80;99.90;;;;;;5032368;28;20039;-82
2022/12/03 11:10:16;;;;;;;42.95;23.65;;;2.80;99.90;;;;;;5028925;28;20029;-81
2022/12/03 11:13:02;;;;;;;44.60;24.20;;;2.80;99.90;;;;;;5023152;28;20621;-82
2022/12/03 11:15:42;;;;;;;43.22;23.38;;;2.70;99.90;;;;;;5032137;28;20029;-82
2022/12/03 11:18:08;;;;;;;40.58;22.60;;;2.80;99.90;;;;;;5003034;28;20114;-81
2022/12/03 11:20:33;;;;;;;46.80;25.35;;;2.90;99.90;;;;;;5034165;28;20096;-82
2022/12/03 11:22:59;;;;;;;43.20;23.55;;;2.90;99.90;;;;;;5025828;28;20161;-81
2022/12/03 11:28:20;;;;;;;44.22;24.42;;;2.90;99.90;;;;;;5030083;28;20068;-81
2022/12/03 11:30:48;;;;;;;44.60;25.20;;;3.00;99.90;;;;;;5031847;28;20034;-82
2022/12/03 11:33:25;;;;;;;43.33;22.80;;;3.00;99.90;;;;;;5032975;28;20042;-82
2022/12/03 11:36:03;;;;;;;46.83;24.33;;;3.00;99.90;;;;;;5033396;28;20038;-81
2022/12/03 11:38:40;;;;;;;41.38;23.55;;;3.10;99.90;;;;;;5030524;28;20030;-81
2022/12/03 11:41:10;;;;;;;47.40;24.33;;;3.20;99.90;;;;;;5017808;28;20398;-82
2022/12/03 11:43:51;;;;;;;41.88;24.20;;;3.20;99.90;;;;;;5009058;28;20168;-82
2022/12/03 11:46:22;;;;;;;41.92;23.80;;;3.30;99.90;;;;;;5026229;28;20034;-81
2022/12/03 11:48:51;;;;;;;42.25;23.17;;;3.30;99.90;;;;;;5030227;28;20546;-81
2022/12/03 11:51:21;;;;;;;45.67;24.52;;;3.20;99.90;;;;;;5024534;28;20038;-81
2022/12/03 11:53:48;;;;;;;45.80;24.73;;;3.10;99.90;;;;;;5027012;28;20063;-81
2022/12/03 11:56:28;;;;;;;44.85;24.60;;;3.10;99.90;;;;;;5029325;28;20042;-82
2022/12/03 11:59:12;;;;;;;42.97;23.40;;;3.30;99.90;;;;;;5014402;28;20051;-82
2022/12/03 12:01:40;;;;;;;42.85;22.83;;;3.80;99.90;;;;;;5022796;28;20116;-82
2022/12/03 12:04:33;;;;;;;42.50;23.58;;;4.30;99.90;;;;;;5013481;28;20403;-82
2022/12/03 12:06:59;;;;;;;42.75;24.00;;;4.60;99.90;;;;;;5036683;28;20059;-82
2022/12/03 12:09:49;;;;;;;38.50;22.00;;;4.50;99.90;;;;;;5030016;28;20065;-82
2022/12/03 12:12:29;;;;;;;37.67;21.48;;;4.30;99.90;;;;;;5008711;28;20037;-82
2022/12/03 12:14:57;;;;;;;39.88;22.75;;;4.20;99.90;;;;;;5026681;28;20038;-82
2022/12/03 12:17:35;;;;;;;38.90;22.15;;;4.00;99.90;;;;;;5031017;28;20052;-82
2022/12/03 12:20:26;;;;;;;40.28;22.98;;;3.90;99.90;;;;;;5013665;28;20041;-82
2022/12/03 12:22:53;;;;;;;41.58;22.60;;;3.70;99.90;;;;;;5023812;28;20049;-81
2022/12/03 12:25:28;;;;;;;34.63;21.92;;;3.60;99.90;;;;;;5040131;28;20047;-82
2022/12/03 12:27:56;;;;;;;40.97;23.00;;;3.50;99.90;;;;;;5029669;28;20048;-82
2022/12/03 12:30:22;;;;;;;38.28;22.23;;;3.40;99.90;;;;;;5024434;28;20085;-81
2022/12/03 12:32:49;;;;;;;38.60;22.15;;;3.30;99.90;;;;;;5032488;28;20037;-81
2022/12/03 12:35:19;;;;;;;39.17;22.33;;;3.10;99.90;;;;;;5028039;28;20038;-81
2022/12/03 12:37:48;;;;;;;39.45;22.63;;;3.00;99.90;;;;;;5012824;28;20033;-82
2022/12/03 12:40:16;;;;;;;38.67;21.75;;;3.00;99.90;;;;;;5025464;28;20041;-82
2022/12/03 12:43:12;;;;;;;38.05;22.40;;;2.90;99.90;;;;;;5023168;28;20504;-81
2022/12/03 12:45:40;;;;;;;40.30;22.30;;;2.90;99.90;;;;;;5027261;28;20045;-82
2022/12/03 12:48:08;;;;;;;40.28;22.10;;;2.90;99.90;;;;;;5031296;28;20091;-82
2022/12/03 12:50:36;;;;;;;39.10;22.55;;;2.80;99.90;;;;;;5028697;28;20091;-81
2022/12/03 12:53:15;;;;;;;38.97;22.23;;;2.90;99.90;;;;;;5025191;28;20049;-82
2022/12/03 12:55:40;;;;;;;39.13;22.13;;;2.80;99.90;;;;;;5011280;28;20030;-82
2022/12/03 12:58:18;;;;;;;39.00;22.55;;;2.80;99.90;;;;;;5000510;28;20091;-82
2022/12/03 13:00:49;;;;;;;41.63;22.17;;;2.90;99.90;;;;;;5031110;28;20042;-82
2022/12/03 13:03:16;;;;;;;41.20;22.35;;;2.90;99.90;;;;;;5008703;28;20502;-81
2022/12/03 13:05:45;;;;;;;40.40;23.63;;;3.00;99.90;;;;;;5014810;28;20045;-82
2022/12/03 13:08:23;;;;;;;39.58;21.70;;;2.90;99.90;;;;;;5007731;28;20497;-82
2022/12/03 13:10:51;;;;;;;43.80;24.20;;;2.80;99.90;;;;;;5016953;28;20029;-82
2022/12/03 13:13:22;;;;;;;39.88;21.70;;;2.80;99.90;;;;;;5028250;28;20042;-81